Terminal Aerodrome Forecast
Issued by NWS

Home | Current Version | Previous Version | Text Only | Print | Product List | Glossary On
Versions: 1 2 3 4 5 6 7 8 9 10 11 12 13 14 15 16
000
FTUS44 KBMX 300500
TAFEET
TAF
KEET 300528Z 3006/0106 00000KT P6SM SCT010
      TEMPO 3008/3012 4SM BR OVC010
     FM301500 04003KT P6SM SKC=

USA.gov is the U.S. government's official web portal to all federal, state and local government web resources and services.